sensor_id;sensor_type;location;lat;lon;timestamp;P1;durP1;ratioP1;P2;durP2;ratioP2
65737;SDS011;52478;51.844;6.582;2023-09-19T00:02:26;5.80;;;1.80;;
65737;SDS011;52478;51.844;6.582;2023-09-19T00:04:54;4.55;;;1.50;;
65737;SDS011;52478;51.844;6.582;2023-09-19T00:07:21;6.10;;;1.80;;
65737;SDS011;52478;51.844;6.582;2023-09-19T00:09:47;5.28;;;1.70;;
65737;SDS011;52478;51.844;6.582;2023-09-19T00:12:14;4.63;;;1.30;;
65737;SDS011;52478;51.844;6.582;2023-09-19T00:14:43;5.63;;;1.63;;
65737;SDS011;52478;51.844;6.582;2023-09-19T00:19:38;5.45;;;1.40;;
65737;SDS011;52478;51.844;6.582;2023-09-19T00:22:07;5.32;;;1.90;;
65737;SDS011;52478;51.844;6.582;2023-09-19T00:24:34;4.90;;;1.60;;
65737;SDS011;52478;51.844;6.582;2023-09-19T00:27:00;4.82;;;1.38;;
65737;SDS011;52478;51.844;6.582;2023-09-19T00:29:27;5.57;;;1.35;;
65737;SDS011;52478;51.844;6.582;2023-09-19T00:31:56;4.93;;;1.73;;
65737;SDS011;52478;51.844;6.582;2023-09-19T00:34:25;6.80;;;1.70;;
65737;SDS011;52478;51.844;6.582;2023-09-19T00:36:53;5.28;;;1.50;;
65737;SDS011;52478;51.844;6.582;2023-09-19T00:39:19;4.50;;;1.33;;
65737;SDS011;52478;51.844;6.582;2023-09-19T00:41:47;5.10;;;1.40;;
65737;SDS011;52478;51.844;6.582;2023-09-19T00:44:13;4.82;;;1.52;;
65737;SDS011;52478;51.844;6.582;2023-09-19T00:46:40;4.90;;;1.60;;
65737;SDS011;52478;51.844;6.582;2023-09-19T00:49:08;4.53;;;1.42;;
65737;SDS011;52478;51.844;6.582;2023-09-19T00:51:37;4.32;;;1.40;;
65737;SDS011;52478;51.844;6.582;2023-09-19T00:54:06;5.60;;;1.45;;
65737;SDS011;52478;51.844;6.582;2023-09-19T00:56:33;4.50;;;1.50;;
65737;SDS011;52478;51.844;6.582;2023-09-19T00:59:03;5.05;;;1.45;;
65737;SDS011;52478;51.844;6.582;2023-09-19T01:01:29;6.57;;;1.73;;
65737;SDS011;52478;51.844;6.582;2023-09-19T01:03:56;5.30;;;1.45;;
65737;SDS011;52478;51.844;6.582;2023-09-19T01:06:23;5.40;;;1.77;;
65737;SDS011;52478;51.844;6.582;2023-09-19T01:08:52;5.20;;;1.60;;
65737;SDS011;52478;51.844;6.582;2023-09-19T01:11:21;5.80;;;1.88;;
65737;SDS011;52478;51.844;6.582;2023-09-19T01:13:56;7.10;;;1.50;;
65737;SDS011;52478;51.844;6.582;2023-09-19T01:16:29;6.13;;;1.70;;
65737;SDS011;52478;51.844;6.582;2023-09-19T01:19:07;5.93;;;1.27;;
65737;SDS011;52478;51.844;6.582;2023-09-19T01:21:51;5.38;;;1.90;;
65737;SDS011;52478;51.844;6.582;2023-09-19T01:24:36;5.25;;;2.05;;
65737;SDS011;52478;51.844;6.582;2023-09-19T01:27:25;4.32;;;1.67;;
65737;SDS011;52478;51.844;6.582;2023-09-19T01:30:10;4.57;;;1.65;;
65737;SDS011;52478;51.844;6.582;2023-09-19T01:32:40;5.78;;;1.70;;
65737;SDS011;52478;51.844;6.582;2023-09-19T01:35:09;5.20;;;1.48;;
65737;SDS011;52478;51.844;6.582;2023-09-19T01:41:01;4.55;;;1.52;;
65737;SDS011;52478;51.844;6.582;2023-09-19T01:43:36;5.03;;;1.70;;
65737;SDS011;52478;51.844;6.582;2023-09-19T01:46:09;6.03;;;1.92;;
65737;SDS011;52478;51.844;6.582;2023-09-19T01:48:41;6.97;;;1.90;;
65737;SDS011;52478;51.844;6.582;2023-09-19T01:51:13;5.15;;;1.60;;
65737;SDS011;52478;51.844;6.582;2023-09-19T01:53:49;6.72;;;1.63;;
65737;SDS011;52478;51.844;6.582;2023-09-19T01:56:23;5.60;;;1.60;;
65737;SDS011;52478;51.844;6.582;2023-09-19T01:58:59;5.22;;;1.90;;
65737;SDS011;52478;51.844;6.582;2023-09-19T02:01:31;4.88;;;1.48;;
65737;SDS011;52478;51.844;6.582;2023-09-19T02:03:59;5.15;;;1.42;;
65737;SDS011;52478;51.844;6.582;2023-09-19T02:06:25;5.20;;;1.63;;
65737;SDS011;52478;51.844;6.582;2023-09-19T02:08:53;5.53;;;1.60;;
65737;SDS011;52478;51.844;6.582;2023-09-19T02:11:20;6.28;;;1.80;;
65737;SDS011;52478;51.844;6.582;2023-09-19T02:13:47;5.20;;;1.58;;
65737;SDS011;52478;51.844;6.582;2023-09-19T02:18:46;5.32;;;1.48;;
65737;SDS011;52478;51.844;6.582;2023-09-19T02:21:13;5.55;;;1.58;;
65737;SDS011;52478;51.844;6.582;2023-09-19T02:23:40;6.50;;;1.70;;
65737;SDS011;52478;51.844;6.582;2023-09-19T02:26:06;5.18;;;2.10;;
65737;SDS011;52478;51.844;6.582;2023-09-19T02:28:33;5.07;;;1.60;;
65737;SDS011;52478;51.844;6.582;2023-09-19T02:31:00;4.22;;;1.33;;
65737;SDS011;52478;51.844;6.582;2023-09-19T02:33:28;5.68;;;1.92;;
65737;SDS011;52478;51.844;6.582;2023-09-19T02:35:59;5.68;;;1.58;;
65737;SDS011;52478;51.844;6.582;2023-09-19T02:38:25;6.10;;;1.67;;
65737;SDS011;52478;51.844;6.582;2023-09-19T02:40:52;5.10;;;1.42;;
65737;SDS011;52478;51.844;6.582;2023-09-19T02:43:20;6.50;;;1.92;;
65737;SDS011;52478;51.844;6.582;2023-09-19T02:45:47;5.82;;;1.35;;
65737;SDS011;52478;51.844;6.582;2023-09-19T02:48:14;6.20;;;1.80;;
65737;SDS011;52478;51.844;6.582;2023-09-19T02:50:41;6.78;;;1.80;;
65737;SDS011;52478;51.844;6.582;2023-09-19T02:53:10;4.88;;;1.70;;
65737;SDS011;52478;51.844;6.582;2023-09-19T02:55:37;5.13;;;1.60;;
65737;SDS011;52478;51.844;6.582;2023-09-19T02:58:05;5.13;;;1.50;;
65737;SDS011;52478;51.844;6.582;2023-09-19T03:00:33;5.15;;;1.48;;
65737;SDS011;52478;51.844;6.582;2023-09-19T03:03:00;5.28;;;1.60;;
65737;SDS011;52478;51.844;6.582;2023-09-19T03:05:27;5.47;;;1.48;;
65737;SDS011;52478;51.844;6.582;2023-09-19T03:07:55;5.75;;;1.70;;
65737;SDS011;52478;51.844;6.582;2023-09-19T03:10:27;7.10;;;1.85;;
65737;SDS011;52478;51.844;6.582;2023-09-19T03:12:54;6.22;;;1.70;;
65737;SDS011;52478;51.844;6.582;2023-09-19T03:15:21;5.80;;;1.65;;
65737;SDS011;52478;51.844;6.582;2023-09-19T03:17:48;5.32;;;1.65;;
65737;SDS011;52478;51.844;6.582;2023-09-19T03:20:17;5.72;;;1.55;;
65737;SDS011;52478;51.844;6.582;2023-09-19T03:22:43;5.38;;;1.50;;
65737;SDS011;52478;51.844;6.582;2023-09-19T03:25:10;5.85;;;1.80;;
65737;SDS011;52478;51.844;6.582;2023-09-19T03:27:38;5.78;;;1.85;;
65737;SDS011;52478;51.844;6.582;2023-09-19T03:30:06;6.72;;;1.70;;
65737;SDS011;52478;51.844;6.582;2023-09-19T03:32:34;4.93;;;1.52;;
65737;SDS011;52478;51.844;6.582;2023-09-19T03:35:01;6.78;;;1.50;;
65737;SDS011;52478;51.844;6.582;2023-09-19T03:37:30;6.53;;;1.63;;
65737;SDS011;52478;51.844;6.582;2023-09-19T03:39:57;5.40;;;1.85;;
65737;SDS011;52478;51.844;6.582;2023-09-19T03:42:23;5.50;;;1.60;;
65737;SDS011;52478;51.844;6.582;2023-09-19T03:44:53;5.10;;;1.48;;
65737;SDS011;52478;51.844;6.582;2023-09-19T03:47:20;5.32;;;1.40;;
65737;SDS011;52478;51.844;6.582;2023-09-19T03:49:46;6.00;;;1.80;;
65737;SDS011;52478;51.844;6.582;2023-09-19T03:52:13;5.78;;;1.52;;
65737;SDS011;52478;51.844;6.582;2023-09-19T03:54:40;6.00;;;1.60;;
65737;SDS011;52478;51.844;6.582;2023-09-19T03:57:07;5.93;;;1.80;;
65737;SDS011;52478;51.844;6.582;2023-09-19T03:59:34;5.75;;;1.65;;
65737;SDS011;52478;51.844;6.582;2023-09-19T04:02:02;6.22;;;1.58;;
65737;SDS011;52478;51.844;6.582;2023-09-19T04:04:29;7.40;;;2.00;;
65737;SDS011;52478;51.844;6.582;2023-09-19T04:06:56;4.97;;;1.30;;
65737;SDS011;52478;51.844;6.582;2023-09-19T04:09:23;5.45;;;1.60;;
65737;SDS011;52478;51.844;6.582;2023-09-19T04:11:49;6.68;;;1.50;;
65737;SDS011;52478;51.844;6.582;2023-09-19T04:14:16;6.80;;;1.60;;
65737;SDS011;52478;51.844;6.582;2023-09-19T04:16:42;5.78;;;1.48;;
65737;SDS011;52478;51.844;6.582;2023-09-19T04:19:10;6.47;;;1.75;;
65737;SDS011;52478;51.844;6.582;2023-09-19T04:21:37;5.20;;;1.60;;
65737;SDS011;52478;51.844;6.582;2023-09-19T04:24:04;6.28;;;1.90;;
65737;SDS011;52478;51.844;6.582;2023-09-19T04:28:58;6.03;;;1.50;;
65737;SDS011;52478;51.844;6.582;2023-09-19T04:31:26;6.55;;;1.55;;
65737;SDS011;52478;51.844;6.582;2023-09-19T04:33:52;6.85;;;1.95;;
65737;SDS011;52478;51.844;6.582;2023-09-19T04:36:20;5.15;;;1.65;;
65737;SDS011;52478;51.844;6.582;2023-09-19T04:38:47;4.95;;;1.40;;
65737;SDS011;52478;51.844;6.582;2023-09-19T04:41:13;6.03;;;1.70;;
65737;SDS011;52478;51.844;6.582;2023-09-19T04:43:40;7.43;;;1.95;;
65737;SDS011;52478;51.844;6.582;2023-09-19T04:46:07;5.40;;;1.20;;
65737;SDS011;52478;51.844;6.582;2023-09-19T04:48:33;5.40;;;1.70;;
65737;SDS011;52478;51.844;6.582;2023-09-19T04:51:00;5.95;;;1.75;;
65737;SDS011;52478;51.844;6.582;2023-09-19T04:53:28;5.82;;;1.50;;
65737;SDS011;52478;51.844;6.582;2023-09-19T04:55:54;6.25;;;1.50;;
65737;SDS011;52478;51.844;6.582;2023-09-19T04:58:21;6.95;;;1.90;;
65737;SDS011;52478;51.844;6.582;2023-09-19T05:00:48;5.75;;;1.83;;
65737;SDS011;52478;51.844;6.582;2023-09-19T05:03:16;7.03;;;1.70;;
65737;SDS011;52478;51.844;6.582;2023-09-19T05:05:42;6.47;;;1.73;;
65737;SDS011;52478;51.844;6.582;2023-09-19T05:08:09;6.95;;;2.03;;
65737;SDS011;52478;51.844;6.582;2023-09-19T05:10:37;4.85;;;1.50;;
65737;SDS011;52478;51.844;6.582;2023-09-19T05:13:04;5.80;;;1.63;;
65737;SDS011;52478;51.844;6.582;2023-09-19T05:15:32;5.95;;;2.00;;
65737;SDS011;52478;51.844;6.582;2023-09-19T05:17:58;7.00;;;1.67;;
65737;SDS011;52478;51.844;6.582;2023-09-19T05:20:25;5.88;;;1.70;;
65737;SDS011;52478;51.844;6.582;2023-09-19T05:22:57;5.95;;;1.40;;
65737;SDS011;52478;51.844;6.582;2023-09-19T05:25:26;7.25;;;1.85;;
65737;SDS011;52478;51.844;6.582;2023-09-19T05:27:56;7.35;;;1.67;;
65737;SDS011;52478;51.844;6.582;2023-09-19T05:30:23;7.30;;;1.70;;
65737;SDS011;52478;51.844;6.582;2023-09-19T05:32:52;4.97;;;1.52;;
65737;SDS011;52478;51.844;6.582;2023-09-19T05:35:18;6.05;;;1.40;;
65737;SDS011;52478;51.844;6.582;2023-09-19T05:37:46;7.07;;;1.67;;
65737;SDS011;52478;51.844;6.582;2023-09-19T05:40:16;6.90;;;1.60;;
65737;SDS011;52478;51.844;6.582;2023-09-19T05:42:42;6.00;;;1.88;;
65737;SDS011;52478;51.844;6.582;2023-09-19T05:45:10;5.93;;;2.00;;
65737;SDS011;52478;51.844;6.582;2023-09-19T05:47:38;6.40;;;1.70;;
65737;SDS011;52478;51.844;6.582;2023-09-19T05:50:05;7.20;;;1.60;;
65737;SDS011;52478;51.844;6.582;2023-09-19T05:52:33;7.40;;;1.98;;
65737;SDS011;52478;51.844;6.582;2023-09-19T05:54:59;6.95;;;2.00;;
65737;SDS011;52478;51.844;6.582;2023-09-19T05:57:26;7.15;;;2.08;;
65737;SDS011;52478;51.844;6.582;2023-09-19T05:59:52;6.95;;;1.60;;
65737;SDS011;52478;51.844;6.582;2023-09-19T06:02:20;6.57;;;1.80;;
65737;SDS011;52478;51.844;6.582;2023-09-19T06:04:47;5.85;;;1.63;;
65737;SDS011;52478;51.844;6.582;2023-09-19T06:07:14;4.57;;;1.50;;
65737;SDS011;52478;51.844;6.582;2023-09-19T06:09:41;8.57;;;2.08;;
65737;SDS011;52478;51.844;6.582;2023-09-19T06:12:08;6.85;;;1.75;;
65737;SDS011;52478;51.844;6.582;2023-09-19T06:14:34;5.97;;;1.65;;
65737;SDS011;52478;51.844;6.582;2023-09-19T06:17:01;9.35;;;2.08;;
65737;SDS011;52478;51.844;6.582;2023-09-19T06:19:29;8.82;;;1.90;;
65737;SDS011;52478;51.844;6.582;2023-09-19T06:21:55;7.70;;;1.92;;
65737;SDS011;52478;51.844;6.582;2023-09-19T06:24:24;7.30;;;1.90;;
65737;SDS011;52478;51.844;6.582;2023-09-19T06:26:51;6.72;;;1.63;;
65737;SDS011;52478;51.844;6.582;2023-09-19T06:29:18;7.60;;;1.80;;
65737;SDS011;52478;51.844;6.582;2023-09-19T06:31:45;6.03;;;2.20;;
65737;SDS011;52478;51.844;6.582;2023-09-19T06:34:12;6.88;;;1.60;;
65737;SDS011;52478;51.844;6.582;2023-09-19T06:36:40;7.22;;;1.90;;
65737;SDS011;52478;51.844;6.582;2023-09-19T06:39:08;5.70;;;1.60;;
65737;SDS011;52478;51.844;6.582;2023-09-19T06:41:36;6.97;;;2.20;;
65737;SDS011;52478;51.844;6.582;2023-09-19T06:44:04;7.05;;;1.70;;
65737;SDS011;52478;51.844;6.582;2023-09-19T06:46:31;6.18;;;1.80;;
65737;SDS011;52478;51.844;6.582;2023-09-19T06:49:00;7.55;;;1.85;;
65737;SDS011;52478;51.844;6.582;2023-09-19T06:51:31;7.55;;;1.83;;
65737;SDS011;52478;51.844;6.582;2023-09-19T06:53:59;7.60;;;2.00;;
65737;SDS011;52478;51.844;6.582;2023-09-19T06:56:26;8.50;;;1.80;;
65737;SDS011;52478;51.844;6.582;2023-09-19T06:58:53;6.90;;;1.88;;
65737;SDS011;52478;51.844;6.582;2023-09-19T07:01:19;7.85;;;1.70;;
65737;SDS011;52478;51.844;6.582;2023-09-19T07:03:45;7.50;;;2.20;;
65737;SDS011;52478;51.844;6.582;2023-09-19T07:06:12;5.68;;;1.90;;
65737;SDS011;52478;51.844;6.582;2023-09-19T07:08:38;6.40;;;2.15;;
65737;SDS011;52478;51.844;6.582;2023-09-19T07:11:07;5.95;;;1.63;;
65737;SDS011;52478;51.844;6.582;2023-09-19T07:13:33;8.60;;;2.25;;
65737;SDS011;52478;51.844;6.582;2023-09-19T07:18:27;7.32;;;1.58;;
65737;SDS011;52478;51.844;6.582;2023-09-19T07:20:56;7.20;;;2.25;;
65737;SDS011;52478;51.844;6.582;2023-09-19T07:23:26;6.72;;;1.58;;
65737;SDS011;52478;51.844;6.582;2023-09-19T07:25:56;7.25;;;2.05;;
65737;SDS011;52478;51.844;6.582;2023-09-19T07:28:25;5.43;;;1.70;;
65737;SDS011;52478;51.844;6.582;2023-09-19T07:30:52;6.95;;;1.90;;
65737;SDS011;52478;51.844;6.582;2023-09-19T07:33:19;7.28;;;1.75;;
65737;SDS011;52478;51.844;6.582;2023-09-19T07:35:45;7.32;;;1.80;;
65737;SDS011;52478;51.844;6.582;2023-09-19T07:38:12;7.20;;;2.00;;
65737;SDS011;52478;51.844;6.582;2023-09-19T07:40:39;5.78;;;1.48;;
65737;SDS011;52478;51.844;6.582;2023-09-19T07:43:05;6.32;;;1.65;;
65737;SDS011;52478;51.844;6.582;2023-09-19T07:45:34;6.95;;;1.60;;
65737;SDS011;52478;51.844;6.582;2023-09-19T07:48:02;7.10;;;1.65;;
65737;SDS011;52478;51.844;6.582;2023-09-19T07:50:33;6.70;;;1.50;;
65737;SDS011;52478;51.844;6.582;2023-09-19T07:53:01;8.00;;;1.85;;
65737;SDS011;52478;51.844;6.582;2023-09-19T07:55:30;9.15;;;2.30;;
65737;SDS011;52478;51.844;6.582;2023-09-19T07:57:58;7.97;;;2.05;;
65737;SDS011;52478;51.844;6.582;2023-09-19T08:00:24;6.55;;;1.73;;
65737;SDS011;52478;51.844;6.582;2023-09-19T08:02:52;6.88;;;1.98;;
65737;SDS011;52478;51.844;6.582;2023-09-19T08:05:19;8.02;;;2.25;;
65737;SDS011;52478;51.844;6.582;2023-09-19T08:07:47;5.28;;;1.85;;
65737;SDS011;52478;51.844;6.582;2023-09-19T08:10:15;8.02;;;1.60;;
65737;SDS011;52478;51.844;6.582;2023-09-19T08:12:44;6.63;;;1.95;;
65737;SDS011;52478;51.844;6.582;2023-09-19T08:15:12;6.88;;;2.50;;
65737;SDS011;52478;51.844;6.582;2023-09-19T08:17:39;5.80;;;1.60;;
65737;SDS011;52478;51.844;6.582;2023-09-19T08:20:08;6.20;;;1.80;;
65737;SDS011;52478;51.844;6.582;2023-09-19T08:22:41;6.78;;;1.55;;
65737;SDS011;52478;51.844;6.582;2023-09-19T08:25:11;6.45;;;1.63;;
65737;SDS011;52478;51.844;6.582;2023-09-19T08:30:04;6.38;;;1.55;;
65737;SDS011;52478;51.844;6.582;2023-09-19T08:32:31;7.28;;;1.90;;
65737;SDS011;52478;51.844;6.582;2023-09-19T08:34:58;7.45;;;1.88;;
65737;SDS011;52478;51.844;6.582;2023-09-19T08:37:26;8.20;;;1.85;;
65737;SDS011;52478;51.844;6.582;2023-09-19T08:39:52;8.35;;;1.90;;
65737;SDS011;52478;51.844;6.582;2023-09-19T08:42:19;7.68;;;2.00;;
65737;SDS011;52478;51.844;6.582;2023-09-19T08:44:46;7.05;;;1.70;;
65737;SDS011;52478;51.844;6.582;2023-09-19T08:47:14;8.45;;;2.05;;
65737;SDS011;52478;51.844;6.582;2023-09-19T08:49:45;11.25;;;2.30;;
65737;SDS011;52478;51.844;6.582;2023-09-19T08:52:25;8.95;;;2.00;;
65737;SDS011;52478;51.844;6.582;2023-09-19T08:54:55;8.93;;;2.20;;
65737;SDS011;52478;51.844;6.582;2023-09-19T08:57:27;13.70;;;2.88;;
65737;SDS011;52478;51.844;6.582;2023-09-19T08:59:55;8.23;;;1.80;;
65737;SDS011;52478;51.844;6.582;2023-09-19T09:02:25;11.70;;;2.00;;
65737;SDS011;52478;51.844;6.582;2023-09-19T09:04:52;7.75;;;1.98;;
65737;SDS011;52478;51.844;6.582;2023-09-19T09:07:20;9.35;;;2.03;;
65737;SDS011;52478;51.844;6.582;2023-09-19T09:12:15;9.10;;;2.45;;
65737;SDS011;52478;51.844;6.582;2023-09-19T09:14:43;9.10;;;2.22;;
65737;SDS011;52478;51.844;6.582;2023-09-19T09:17:11;9.20;;;2.53;;
65737;SDS011;52478;51.844;6.582;2023-09-19T09:19:38;9.90;;;2.22;;
65737;SDS011;52478;51.844;6.582;2023-09-19T09:22:06;11.20;;;2.33;;
65737;SDS011;52478;51.844;6.582;2023-09-19T09:24:34;8.60;;;2.17;;
65737;SDS011;52478;51.844;6.582;2023-09-19T09:27:04;9.13;;;2.45;;
65737;SDS011;52478;51.844;6.582;2023-09-19T09:29:42;11.00;;;3.20;;
65737;SDS011;52478;51.844;6.582;2023-09-19T09:32:22;11.18;;;2.47;;
65737;SDS011;52478;51.844;6.582;2023-09-19T09:34:50;9.95;;;2.28;;
65737;SDS011;52478;51.844;6.582;2023-09-19T09:37:19;15.23;;;3.35;;
65737;SDS011;52478;51.844;6.582;2023-09-19T09:39:50;11.85;;;2.47;;
65737;SDS011;52478;51.844;6.582;2023-09-19T09:45:13;9.75;;;2.38;;
65737;SDS011;52478;51.844;6.582;2023-09-19T09:47:41;8.05;;;2.00;;
65737;SDS011;52478;51.844;6.582;2023-09-19T09:50:11;10.50;;;2.40;;
65737;SDS011;52478;51.844;6.582;2023-09-19T09:52:45;9.27;;;2.28;;
65737;SDS011;52478;51.844;6.582;2023-09-19T09:55:12;12.18;;;2.78;;
65737;SDS011;52478;51.844;6.582;2023-09-19T09:57:38;9.77;;;2.30;;
65737;SDS011;52478;51.844;6.582;2023-09-19T10:00:09;9.52;;;2.30;;
65737;SDS011;52478;51.844;6.582;2023-09-19T10:02:45;8.40;;;1.95;;
65737;SDS011;52478;51.844;6.582;2023-09-19T10:05:12;8.98;;;2.50;;
65737;SDS011;52478;51.844;6.582;2023-09-19T10:07:46;10.13;;;2.38;;
65737;SDS011;52478;51.844;6.582;2023-09-19T10:10:28;9.15;;;2.28;;
65737;SDS011;52478;51.844;6.582;2023-09-19T10:13:04;9.88;;;2.30;;
65737;SDS011;52478;51.844;6.582;2023-09-19T10:15:32;9.43;;;2.55;;
65737;SDS011;52478;51.844;6.582;2023-09-19T10:18:01;10.40;;;2.53;;
65737;SDS011;52478;51.844;6.582;2023-09-19T10:20:31;11.07;;;2.40;;
65737;SDS011;52478;51.844;6.582;2023-09-19T10:23:01;7.53;;;2.10;;
65737;SDS011;52478;51.844;6.582;2023-09-19T10:25:34;10.18;;;2.10;;
65737;SDS011;52478;51.844;6.582;2023-09-19T10:28:03;8.15;;;2.05;;
65737;SDS011;52478;51.844;6.582;2023-09-19T10:30:36;8.50;;;2.10;;
65737;SDS011;52478;51.844;6.582;2023-09-19T10:33:04;11.10;;;2.50;;
65737;SDS011;52478;51.844;6.582;2023-09-19T10:35:32;9.75;;;1.95;;
65737;SDS011;52478;51.844;6.582;2023-09-19T10:37:59;8.90;;;2.10;;
65737;SDS011;52478;51.844;6.582;2023-09-19T10:40:28;6.75;;;1.70;;
65737;SDS011;52478;51.844;6.582;2023-09-19T10:43:00;8.85;;;1.90;;
65737;SDS011;52478;51.844;6.582;2023-09-19T10:45:31;10.27;;;2.83;;
65737;SDS011;52478;51.844;6.582;2023-09-19T10:48:00;7.78;;;1.95;;
65737;SDS011;52478;51.844;6.582;2023-09-19T10:50:29;8.07;;;2.10;;
65737;SDS011;52478;51.844;6.582;2023-09-19T10:52:59;8.75;;;2.03;;
65737;SDS011;52478;51.844;6.582;2023-09-19T10:55:30;9.30;;;2.13;;
65737;SDS011;52478;51.844;6.582;2023-09-19T10:58:00;9.07;;;1.90;;
65737;SDS011;52478;51.844;6.582;2023-09-19T11:00:30;8.32;;;2.20;;
65737;SDS011;52478;51.844;6.582;2023-09-19T11:03:19;9.95;;;2.13;;
65737;SDS011;52478;51.844;6.582;2023-09-19T11:11:42;9.82;;;2.15;;
65737;SDS011;52478;51.844;6.582;2023-09-19T11:14:30;8.07;;;1.88;;
65737;SDS011;52478;51.844;6.582;2023-09-19T11:20:21;9.18;;;1.85;;
65737;SDS011;52478;51.844;6.582;2023-09-19T11:23:17;8.50;;;2.30;;
65737;SDS011;52478;51.844;6.582;2023-09-19T11:25:47;9.15;;;2.08;;
65737;SDS011;52478;51.844;6.582;2023-09-19T11:28:32;8.85;;;2.25;;
65737;SDS011;52478;51.844;6.582;2023-09-19T11:37:06;8.07;;;2.33;;
65737;SDS011;52478;51.844;6.582;2023-09-19T11:40:27;7.80;;;2.30;;
65737;SDS011;52478;51.844;6.582;2023-09-19T11:42:55;8.73;;;1.88;;
65737;SDS011;52478;51.844;6.582;2023-09-19T11:48:26;7.20;;;2.45;;
65737;SDS011;52478;51.844;6.582;2023-09-19T11:50:54;9.65;;;2.50;;
65737;SDS011;52478;51.844;6.582;2023-09-19T11:53:24;8.50;;;2.00;;
65737;SDS011;52478;51.844;6.582;2023-09-19T11:55:58;7.95;;;1.75;;
65737;SDS011;52478;51.844;6.582;2023-09-19T11:58:25;9.00;;;2.15;;
65737;SDS011;52478;51.844;6.582;2023-09-19T12:00:54;6.68;;;1.88;;
65737;SDS011;52478;51.844;6.582;2023-09-19T12:03:23;8.43;;;2.10;;
65737;SDS011;52478;51.844;6.582;2023-09-19T12:05:56;7.88;;;1.92;;
65737;SDS011;52478;51.844;6.582;2023-09-19T12:08:24;7.28;;;1.85;;
65737;SDS011;52478;51.844;6.582;2023-09-19T12:10:52;9.73;;;2.20;;
65737;SDS011;52478;51.844;6.582;2023-09-19T12:13:20;7.00;;;2.00;;
65737;SDS011;52478;51.844;6.582;2023-09-19T12:15:46;8.25;;;2.10;;
65737;SDS011;52478;51.844;6.582;2023-09-19T12:18:26;6.97;;;2.13;;
65737;SDS011;52478;51.844;6.582;2023-09-19T12:20:53;8.35;;;1.77;;
65737;SDS011;52478;51.844;6.582;2023-09-19T12:25:48;6.22;;;1.77;;
65737;SDS011;52478;51.844;6.582;2023-09-19T12:28:18;8.90;;;2.05;;
65737;SDS011;52478;51.844;6.582;2023-09-19T12:30:47;7.03;;;1.83;;
65737;SDS011;52478;51.844;6.582;2023-09-19T12:33:17;7.55;;;1.85;;
65737;SDS011;52478;51.844;6.582;2023-09-19T12:36:49;5.68;;;1.73;;
65737;SDS011;52478;51.844;6.582;2023-09-19T12:39:25;6.25;;;1.48;;
65737;SDS011;52478;51.844;6.582;2023-09-19T12:41:52;9.50;;;1.65;;
65737;SDS011;52478;51.844;6.582;2023-09-19T12:44:19;6.78;;;1.67;;
65737;SDS011;52478;51.844;6.582;2023-09-19T12:46:49;8.55;;;1.63;;
65737;SDS011;52478;51.844;6.582;2023-09-19T12:49:16;6.45;;;1.75;;
65737;SDS011;52478;51.844;6.582;2023-09-19T12:51:43;6.38;;;1.63;;
65737;SDS011;52478;51.844;6.582;2023-09-19T12:54:12;7.75;;;1.63;;
65737;SDS011;52478;51.844;6.582;2023-09-19T12:56:41;7.20;;;1.55;;
65737;SDS011;52478;51.844;6.582;2023-09-19T12:59:09;6.97;;;1.77;;
65737;SDS011;52478;51.844;6.582;2023-09-19T13:01:38;7.88;;;1.60;;
65737;SDS011;52478;51.844;6.582;2023-09-19T13:04:15;6.40;;;1.70;;
65737;SDS011;52478;51.844;6.582;2023-09-19T13:06:44;7.15;;;1.83;;
65737;SDS011;52478;51.844;6.582;2023-09-19T13:09:15;5.28;;;1.50;;
65737;SDS011;52478;51.844;6.582;2023-09-19T13:11:42;6.18;;;1.63;;
65737;SDS011;52478;51.844;6.582;2023-09-19T13:14:14;9.38;;;1.70;;
65737;SDS011;52478;51.844;6.582;2023-09-19T13:16:55;7.72;;;1.80;;
65737;SDS011;52478;51.844;6.582;2023-09-19T13:19:35;7.95;;;1.83;;
65737;SDS011;52478;51.844;6.582;2023-09-19T13:25:06;8.88;;;2.00;;
65737;SDS011;52478;51.844;6.582;2023-09-19T13:27:38;7.97;;;2.22;;
65737;SDS011;52478;51.844;6.582;2023-09-19T13:30:05;6.65;;;1.90;;
65737;SDS011;52478;51.844;6.582;2023-09-19T13:32:32;6.82;;;1.90;;
65737;SDS011;52478;51.844;6.582;2023-09-19T13:34:59;6.65;;;1.60;;
65737;SDS011;52478;51.844;6.582;2023-09-19T13:37:25;6.90;;;1.45;;
65737;SDS011;52478;51.844;6.582;2023-09-19T13:39:52;5.72;;;1.52;;
65737;SDS011;52478;51.844;6.582;2023-09-19T13:42:20;8.63;;;1.90;;
65737;SDS011;52478;51.844;6.582;2023-09-19T13:44:47;6.50;;;1.83;;
65737;SDS011;52478;51.844;6.582;2023-09-19T13:47:13;5.35;;;1.60;;
65737;SDS011;52478;51.844;6.582;2023-09-19T13:49:41;6.70;;;2.00;;
65737;SDS011;52478;51.844;6.582;2023-09-19T13:52:09;6.65;;;1.60;;
65737;SDS011;52478;51.844;6.582;2023-09-19T13:54:38;5.60;;;1.58;;
65737;SDS011;52478;51.844;6.582;2023-09-19T13:57:04;7.53;;;1.80;;
65737;SDS011;52478;51.844;6.582;2023-09-19T13:59:32;7.85;;;1.73;;
65737;SDS011;52478;51.844;6.582;2023-09-19T14:01:59;8.07;;;1.63;;
65737;SDS011;52478;51.844;6.582;2023-09-19T14:04:25;6.13;;;1.50;;
65737;SDS011;52478;51.844;6.582;2023-09-19T14:06:54;6.50;;;1.73;;
65737;SDS011;52478;51.844;6.582;2023-09-19T14:09:20;8.13;;;1.90;;
65737;SDS011;52478;51.844;6.582;2023-09-19T14:11:48;6.25;;;1.58;;
65737;SDS011;52478;51.844;6.582;2023-09-19T14:14:17;7.93;;;1.73;;
65737;SDS011;52478;51.844;6.582;2023-09-19T14:16:45;6.50;;;1.58;;
65737;SDS011;52478;51.844;6.582;2023-09-19T14:19:12;5.57;;;1.60;;
65737;SDS011;52478;51.844;6.582;2023-09-19T14:21:41;7.97;;;2.08;;
65737;SDS011;52478;51.844;6.582;2023-09-19T14:24:08;6.30;;;1.63;;
65737;SDS011;52478;51.844;6.582;2023-09-19T14:26:36;5.38;;;1.42;;
65737;SDS011;52478;51.844;6.582;2023-09-19T14:29:03;6.60;;;1.55;;
65737;SDS011;52478;51.844;6.582;2023-09-19T14:31:32;5.78;;;1.52;;
65737;SDS011;52478;51.844;6.582;2023-09-19T14:34:00;7.60;;;1.70;;
65737;SDS011;52478;51.844;6.582;2023-09-19T14:36:27;5.20;;;1.40;;
65737;SDS011;52478;51.844;6.582;2023-09-19T14:38:55;5.80;;;1.70;;
65737;SDS011;52478;51.844;6.582;2023-09-19T14:41:24;6.55;;;1.50;;
65737;SDS011;52478;51.844;6.582;2023-09-19T14:43:52;7.28;;;1.63;;
65737;SDS011;52478;51.844;6.582;2023-09-19T14:46:20;5.90;;;1.52;;
65737;SDS011;52478;51.844;6.582;2023-09-19T14:48:49;6.03;;;1.67;;
65737;SDS011;52478;51.844;6.582;2023-09-19T14:51:18;6.78;;;1.65;;
65737;SDS011;52478;51.844;6.582;2023-09-19T14:53:45;4.78;;;1.30;;
65737;SDS011;52478;51.844;6.582;2023-09-19T14:58:41;6.35;;;1.25;;
65737;SDS011;52478;51.844;6.582;2023-09-19T15:01:08;5.35;;;1.45;;
65737;SDS011;52478;51.844;6.582;2023-09-19T15:03:36;6.40;;;2.05;;
65737;SDS011;52478;51.844;6.582;2023-09-19T15:06:05;5.40;;;1.55;;
65737;SDS011;52478;51.844;6.582;2023-09-19T15:08:35;6.72;;;1.30;;
65737;SDS011;52478;51.844;6.582;2023-09-19T15:11:03;5.47;;;1.33;;
65737;SDS011;52478;51.844;6.582;2023-09-19T15:13:30;5.53;;;1.58;;
65737;SDS011;52478;51.844;6.582;2023-09-19T15:18:27;6.30;;;1.40;;
65737;SDS011;52478;51.844;6.582;2023-09-19T15:20:55;7.93;;;1.50;;
65737;SDS011;52478;51.844;6.582;2023-09-19T15:23:21;5.70;;;1.30;;
65737;SDS011;52478;51.844;6.582;2023-09-19T15:25:49;5.50;;;1.35;;
65737;SDS011;52478;51.844;6.582;2023-09-19T15:28:16;6.55;;;1.40;;
65737;SDS011;52478;51.844;6.582;2023-09-19T15:30:42;6.20;;;1.40;;
65737;SDS011;52478;51.844;6.582;2023-09-19T15:33:08;6.78;;;1.30;;
65737;SDS011;52478;51.844;6.582;2023-09-19T15:35:35;5.55;;;1.30;;
65737;SDS011;52478;51.844;6.582;2023-09-19T15:38:02;4.53;;;1.20;;
65737;SDS011;52478;51.844;6.582;2023-09-19T15:40:29;4.45;;;1.17;;
65737;SDS011;52478;51.844;6.582;2023-09-19T15:42:57;4.90;;;1.50;;
65737;SDS011;52478;51.844;6.582;2023-09-19T15:45:24;4.60;;;1.27;;
65737;SDS011;52478;51.844;6.582;2023-09-19T15:47:51;6.15;;;1.40;;
65737;SDS011;52478;51.844;6.582;2023-09-19T15:50:18;4.95;;;1.05;;